Time;durP1;ratioP1;P1;durP2;ratioP2;P2;SDS_P1;SDS_P2;PMS_P1;PMS_P2;Temp;Humidity;BMP_temperature;BMP_pressure;BME280_temperature;BME280_humidity;BME280_pressure;Samples;Min_cycle;Max_cycle;Signal;HPM_P1;HPM_P2
2022/04/25 00:01:45;;;;;;;0.70;0.60;;;;;;;;;;5115393;28;20839;-69
2022/04/25 00:04:12;;;;;;;0.70;0.60;;;;;;;;;;5115692;28;20425;-69
2022/04/25 00:06:38;;;;;;;0.70;0.60;;;;;;;;;;5115710;28;20441;-68
2022/04/25 00:09:06;;;;;;;0.70;0.60;;;;;;;;;;5115230;28;20444;-69
2022/04/25 00:11:39;;;;;;;0.70;0.60;;;;;;;;;;5112970;28;20456;-71
2022/04/25 00:14:07;;;;;;;0.70;0.60;;;;;;;;;;5095239;28;20480;-69
2022/04/25 00:16:34;;;;;;;0.70;0.60;;;;;;;;;;5112718;28;20492;-69
2022/04/25 00:19:01;;;;;;;1.60;1.00;;;;;;;;;;5114797;28;20494;-69
2022/04/25 00:21:29;;;;;;;0.70;0.60;;;;;;;;;;5097165;28;20463;-69
2022/04/25 00:23:57;;;;;;;0.70;0.63;;;;;;;;;;5096941;28;20426;-71
2022/04/25 00:26:25;;;;;;;1.00;0.90;;;;;;;;;;5115139;28;20796;-69
2022/04/25 00:28:52;;;;;;;0.80;0.80;;;;;;;;;;5095977;28;20464;-69
2022/04/25 00:31:19;;;;;;;0.93;0.80;;;;;;;;;;5112931;28;20955;-69
2022/04/25 00:33:47;;;;;;;0.70;0.67;;;;;;;;;;5113557;28;20451;-69
2022/04/25 00:36:14;;;;;;;1.27;1.00;;;;;;;;;;5114470;28;20541;-67
2022/04/25 00:38:40;;;;;;;1.07;0.93;;;;;;;;;;5115002;28;20729;-66
2022/04/25 00:41:07;;;;;;;0.70;0.60;;;;;;;;;;5114311;28;20437;-66
2022/04/25 00:43:36;;;;;;;0.70;0.60;;;;;;;;;;5113321;28;20464;-66
2022/04/25 00:46:04;;;;;;;0.70;0.60;;;;;;;;;;5113229;28;20797;-66
2022/04/25 00:48:33;;;;;;;0.70;0.60;;;;;;;;;;5112948;28;20478;-66
2022/04/25 00:51:02;;;;;;;0.70;0.60;;;;;;;;;;5113179;28;20556;-67
2022/04/25 00:53:31;;;;;;;0.70;0.60;;;;;;;;;;5102046;28;20446;-67
2022/04/25 00:56:00;;;;;;;0.70;0.70;;;;;;;;;;5092149;28;20546;-67
2022/04/25 01:01:31;;;;;;;0.70;0.60;;;;;;;;;;5112741;28;20244;-68
2022/04/25 01:03:59;;;;;;;0.70;0.60;;;;;;;;;;5113811;28;20491;-68
2022/04/25 01:06:27;;;;;;;0.70;0.60;;;;;;;;;;5113010;28;20457;-69
2022/04/25 01:08:56;;;;;;;0.70;0.60;;;;;;;;;;5113034;28;20948;-69
2022/04/25 01:11:25;;;;;;;0.70;0.60;;;;;;;;;;5115046;28;20451;-69
2022/04/25 01:13:56;;;;;;;0.70;0.60;;;;;;;;;;5113768;28;20258;-70
2022/04/25 01:16:24;;;;;;;0.70;0.60;;;;;;;;;;5100705;28;20457;-70
2022/04/25 01:18:52;;;;;;;0.70;0.63;;;;;;;;;;5097598;28;20202;-70
2022/04/25 01:21:27;;;;;;;0.70;0.60;;;;;;;;;;5113713;28;20214;-69
2022/04/25 01:29:46;;;;;;;0.70;0.60;;;;;;;;;;5116863;28;20274;-69
2022/04/25 01:32:22;;;;;;;0.70;0.60;;;;;;;;;;5101042;28;20519;-70
2022/04/25 01:34:59;;;;;;;0.70;0.60;;;;;;;;;;5100315;28;20450;-69
2022/04/25 01:37:31;;;;;;;0.70;0.60;;;;;;;;;;5116397;28;20227;-70
2022/04/25 01:40:02;;;;;;;0.70;0.70;;;;;;;;;;5117630;28;20215;-68
2022/04/25 01:42:36;;;;;;;0.70;0.60;;;;;;;;;;5116464;28;20187;-70
2022/04/25 01:45:08;;;;;;;1.08;0.98;;;;;;;;;;5116313;28;21014;-70
2022/04/25 01:47:37;;;;;;;0.70;0.60;;;;;;;;;;5116361;28;20222;-69
2022/04/25 01:50:08;;;;;;;0.70;0.60;;;;;;;;;;5116806;28;20287;-69
2022/04/25 01:52:37;;;;;;;0.70;0.60;;;;;;;;;;5116330;28;20694;-71
2022/04/25 01:55:12;;;;;;;0.70;0.70;;;;;;;;;;5099837;28;20650;-69
2022/04/25 01:57:42;;;;;;;0.70;0.60;;;;;;;;;;5116575;28;20217;-71
2022/04/25 02:00:12;;;;;;;0.70;0.67;;;;;;;;;;5099698;28;20202;-71
2022/04/25 02:02:39;;;;;;;0.70;0.60;;;;;;;;;;5115796;28;20444;-70
2022/04/25 02:05:12;;;;;;;0.70;0.60;;;;;;;;;;5116351;28;20189;-69
2022/04/25 02:08:05;;;;;;;0.70;0.60;;;;;;;;;;5116699;28;20199;-69
2022/04/25 02:13:45;;;;;;;0.70;0.70;;;;;;;;;;5117804;28;20176;-69
2022/04/25 02:16:12;;;;;;;0.70;0.60;;;;;;;;;;5115934;28;20795;-69
2022/04/25 02:18:40;;;;;;;0.70;0.60;;;;;;;;;;5099503;28;20195;-69
2022/04/25 02:21:07;;;;;;;0.70;0.60;;;;;;;;;;5115849;28;20208;-70
2022/04/25 02:23:36;;;;;;;0.80;0.80;;;;;;;;;;5116199;28;20234;-69
2022/04/25 02:26:02;;;;;;;0.80;0.70;;;;;;;;;;5116177;28;20184;-70
2022/04/25 02:28:31;;;;;;;0.70;0.60;;;;;;;;;;5116165;28;20199;-70
2022/04/25 02:30:59;;;;;;;0.80;0.70;;;;;;;;;;5116316;28;20413;-70
2022/04/25 02:33:27;;;;;;;0.70;0.60;;;;;;;;;;5098723;28;20195;-70
2022/04/25 02:35:58;;;;;;;0.70;0.60;;;;;;;;;;5099278;28;20217;-72
2022/04/25 02:38:26;;;;;;;0.70;0.63;;;;;;;;;;5117251;28;20213;-68
2022/04/25 02:41:04;;;;;;;0.80;0.80;;;;;;;;;;5098964;28;20196;-68
2022/04/25 02:44:00;;;;;;;0.70;0.70;;;;;;;;;;5117616;28;20175;-70
2022/04/25 02:46:29;;;;;;;0.70;0.60;;;;;;;;;;5115815;28;20187;-68
2022/04/25 02:48:56;;;;;;;0.70;0.60;;;;;;;;;;5116362;28;20648;-69
2022/04/25 02:51:23;;;;;;;0.70;0.70;;;;;;;;;;5116800;28;20746;-67
2022/04/25 02:53:57;;;;;;;0.70;0.60;;;;;;;;;;5115621;28;20187;-69
2022/04/25 02:56:24;;;;;;;0.70;0.60;;;;;;;;;;5115415;28;20196;-69
2022/04/25 02:58:51;;;;;;;0.70;0.60;;;;;;;;;;5117461;28;20266;-69
2022/04/25 03:01:18;;;;;;;0.70;0.60;;;;;;;;;;5115533;28;20189;-69
2022/04/25 03:03:47;;;;;;;0.70;0.60;;;;;;;;;;5115350;28;20215;-70
2022/04/25 03:06:14;;;;;;;0.70;0.60;;;;;;;;;;5094041;28;20225;-67
2022/04/25 03:08:40;;;;;;;0.70;0.60;;;;;;;;;;5116984;28;20191;-69
2022/04/25 03:11:11;;;;;;;0.70;0.70;;;;;;;;;;5116210;28;20612;-68
2022/04/25 03:13:52;;;;;;;0.70;0.60;;;;;;;;;;5115250;28;20234;-69
2022/04/25 03:16:20;;;;;;;0.70;0.60;;;;;;;;;;5116455;28;20243;-69
2022/04/25 03:18:49;;;;;;;0.80;0.80;;;;;;;;;;5116077;28;20215;-69
2022/04/25 03:21:18;;;;;;;0.70;0.60;;;;;;;;;;5115382;28;20261;-69
2022/04/25 03:23:45;;;;;;;0.70;0.60;;;;;;;;;;5116047;28;20206;-68
2022/04/25 03:26:12;;;;;;;1.10;1.00;;;;;;;;;;5115283;28;20607;-69
2022/04/25 03:28:43;;;;;;;0.70;0.70;;;;;;;;;;5116236;28;20188;-69
2022/04/25 03:31:10;;;;;;;0.70;0.60;;;;;;;;;;5098400;28;20219;-70
2022/04/25 03:33:37;;;;;;;0.70;0.70;;;;;;;;;;5116325;28;20614;-68
2022/04/25 03:39:02;;;;;;;0.70;0.60;;;;;;;;;;5115328;28;20735;-68
2022/04/25 03:41:31;;;;;;;0.70;0.60;;;;;;;;;;5115545;28;20184;-69
2022/04/25 03:43:59;;;;;;;0.70;0.60;;;;;;;;;;5115883;28;20180;-68
2022/04/25 03:46:27;;;;;;;0.70;0.60;;;;;;;;;;5113903;28;20324;-69
2022/04/25 03:48:54;;;;;;;0.70;0.70;;;;;;;;;;5113866;28;20437;-69
2022/04/25 03:51:21;;;;;;;0.70;0.60;;;;;;;;;;5115000;28;20248;-69
2022/04/25 03:53:52;;;;;;;0.60;0.60;;;;;;;;;;5114748;28;20836;-68
2022/04/25 03:59:13;;;;;;;0.70;0.60;;;;;;;;;;5115281;28;20189;-69
2022/04/25 04:01:40;;;;;;;0.65;0.60;;;;;;;;;;5115530;28;20184;-68
2022/04/25 04:04:07;;;;;;;0.70;0.60;;;;;;;;;;5115547;28;20185;-68
2022/04/25 04:06:41;;;;;;;0.70;0.60;;;;;;;;;;5113717;28;20446;-70
2022/04/25 04:11:55;;;;;;;0.65;0.60;;;;;;;;;;5113712;28;20636;-69
2022/04/25 04:14:22;;;;;;;0.60;0.60;;;;;;;;;;5113489;28;20290;-69
2022/04/25 04:16:53;;;;;;;0.60;0.57;;;;;;;;;;5113357;28;20260;-70
2022/04/25 04:19:20;;;;;;;0.70;0.60;;;;;;;;;;5091921;28;20244;-69
2022/04/25 04:21:47;;;;;;;0.70;0.63;;;;;;;;;;5114847;28;20200;-68
2022/04/25 04:24:18;;;;;;;0.70;0.60;;;;;;;;;;5107715;27;20325;-69
2022/04/25 04:26:45;;;;;;;0.70;0.60;;;;;;;;;;5133550;27;20583;-70
2022/04/25 04:29:14;;;;;;;0.70;0.70;;;;;;;;;;5134862;27;20195;-68
2022/04/25 04:31:40;;;;;;;0.70;0.60;;;;;;;;;;5135438;27;20163;-69
2022/04/25 04:34:08;;;;;;;0.70;0.60;;;;;;;;;;5133854;27;20187;-69
2022/04/25 04:36:37;;;;;;;0.70;0.60;;;;;;;;;;5133702;27;20313;-69
2022/04/25 04:39:06;;;;;;;0.70;0.60;;;;;;;;;;5118064;27;20810;-69
2022/04/25 04:41:33;;;;;;;0.70;0.60;;;;;;;;;;5113079;28;20465;-69
2022/04/25 04:44:05;;;;;;;0.70;0.65;;;;;;;;;;5114167;28;20204;-69
2022/04/25 04:46:34;;;;;;;0.70;0.60;;;;;;;;;;5113242;28;20209;-69
2022/04/25 04:49:00;;;;;;;0.68;0.65;;;;;;;;;;5114747;28;20667;-69
2022/04/25 04:51:28;;;;;;;0.82;0.82;;;;;;;;;;5095955;28;20298;-69
2022/04/25 04:53:59;;;;;;;0.70;0.60;;;;;;;;;;5113656;28;20186;-69
2022/04/25 04:56:28;;;;;;;0.70;0.70;;;;;;;;;;5096101;28;20483;-69
2022/04/25 04:58:55;;;;;;;0.68;0.60;;;;;;;;;;5113014;28;20429;-70
2022/04/25 05:01:22;;;;;;;0.70;0.60;;;;;;;;;;5113500;28;20288;-69
2022/04/25 05:03:58;;;;;;;0.60;0.60;;;;;;;;;;5114411;28;20406;-69
2022/04/25 05:06:30;;;;;;;0.70;0.60;;;;;;;;;;5114496;28;20205;-69
2022/04/25 05:08:59;;;;;;;2.85;1.27;;;;;;;;;;5113187;28;20437;-71
2022/04/25 05:11:29;;;;;;;0.70;0.60;;;;;;;;;;5110356;28;20708;-69
2022/04/25 05:13:56;;;;;;;0.70;0.63;;;;;;;;;;5112421;28;20668;-68
2022/04/25 05:16:22;;;;;;;0.70;0.60;;;;;;;;;;5096525;28;20195;-69
2022/04/25 05:18:50;;;;;;;1.13;0.90;;;;;;;;;;5112976;28;20489;-69
2022/04/25 05:21:18;;;;;;;0.68;0.60;;;;;;;;;;5095982;28;20506;-68
2022/04/25 05:23:52;;;;;;;0.60;0.60;;;;;;;;;;5097006;28;20675;-69
2022/04/25 05:26:18;;;;;;;0.70;0.60;;;;;;;;;;5112888;28;20437;-69
2022/04/25 05:28:45;;;;;;;0.70;0.60;;;;;;;;;;5113791;28;20460;-69
2022/04/25 05:31:13;;;;;;;0.70;0.60;;;;;;;;;;5112901;28;20203;-68
2022/04/25 05:33:41;;;;;;;0.70;0.60;;;;;;;;;;5112978;28;20209;-68
2022/04/25 05:36:07;;;;;;;0.60;0.60;;;;;;;;;;5112534;28;20506;-69
2022/04/25 05:38:37;;;;;;;0.63;0.60;;;;;;;;;;5114135;28;20468;-69
2022/04/25 05:41:07;;;;;;;0.60;0.60;;;;;;;;;;5112587;28;20511;-68
2022/04/25 05:43:34;;;;;;;0.70;0.60;;;;;;;;;;5095972;28;20490;-69
2022/04/25 05:46:00;;;;;;;0.60;0.60;;;;;;;;;;5112334;28;20495;-69
2022/04/25 05:54:02;;;;;;;0.70;0.60;;;;;;;;;;5114550;28;20763;-67
2022/04/25 05:56:30;;;;;;;0.70;0.70;;;;;;;;;;5095746;28;20779;-69
2022/04/25 05:58:57;;;;;;;0.60;0.60;;;;;;;;;;5113708;28;20479;-68
2022/04/25 06:01:23;;;;;;;0.70;0.60;;;;;;;;;;5112625;28;20988;-68
2022/04/25 06:03:51;;;;;;;0.70;0.70;;;;;;;;;;5114247;28;20425;-69
2022/04/25 06:06:23;;;;;;;0.70;0.60;;;;;;;;;;5094899;28;20449;-66
2022/04/25 06:08:50;;;;;;;0.70;0.70;;;;;;;;;;5113923;28;20532;-68
2022/04/25 06:11:21;;;;;;;0.70;0.60;;;;;;;;;;5116745;28;20444;-67
2022/04/25 06:13:50;;;;;;;0.70;0.60;;;;;;;;;;5116447;28;20898;-68
2022/04/25 06:16:20;;;;;;;0.70;0.60;;;;;;;;;;5116195;28;20436;-67
2022/04/25 06:18:46;;;;;;;0.70;0.60;;;;;;;;;;5117573;28;20467;-66
2022/04/25 06:21:14;;;;;;;0.70;0.60;;;;;;;;;;5098564;28;20508;-68
2022/04/25 06:23:41;;;;;;;0.70;0.60;;;;;;;;;;5116153;28;20832;-68
2022/04/25 06:26:08;;;;;;;0.70;0.60;;;;;;;;;;5117216;28;20406;-67
2022/04/25 06:28:36;;;;;;;0.80;0.80;;;;;;;;;;5099317;28;20455;-68
2022/04/25 06:31:03;;;;;;;0.70;0.50;;;;;;;;;;5116080;28;20441;-68
2022/04/25 06:33:31;;;;;;;0.70;0.60;;;;;;;;;;5115580;28;20485;-67
2022/04/25 06:35:59;;;;;;;0.70;0.50;;;;;;;;;;5098815;28;20925;-68
2022/04/25 06:38:26;;;;;;;0.70;0.60;;;;;;;;;;5117190;27;20461;-68
2022/04/25 06:40:54;;;;;;;0.80;0.80;;;;;;;;;;5117322;28;20476;-68
2022/04/25 06:43:22;;;;;;;0.70;0.60;;;;;;;;;;5117644;28;20922;-68
2022/04/25 06:45:54;;;;;;;0.70;0.60;;;;;;;;;;5117528;28;20487;-68
2022/04/25 06:48:21;;;;;;;0.70;0.60;;;;;;;;;;5116129;28;20425;-68
2022/04/25 06:50:49;;;;;;;0.70;0.60;;;;;;;;;;5115595;28;20445;-68
2022/04/25 06:53:17;;;;;;;0.70;0.60;;;;;;;;;;5115786;28;20486;-68
2022/04/25 06:55:45;;;;;;;0.70;0.60;;;;;;;;;;5116720;28;20438;-68
2022/04/25 07:01:29;;;;;;;0.70;0.60;;;;;;;;;;5116637;28;20453;-68
2022/04/25 07:03:59;;;;;;;0.70;0.60;;;;;;;;;;5108854;28;20476;-68
2022/04/25 07:06:54;;;;;;;0.70;0.60;;;;;;;;;;5115406;28;20855;-67
2022/04/25 07:09:22;;;;;;;0.70;0.60;;;;;;;;;;5105411;28;20444;-71
2022/04/25 07:11:51;;;;;;;0.70;0.60;;;;;;;;;;5096931;28;20469;-66
2022/04/25 07:14:18;;;;;;;0.70;0.60;;;;;;;;;;5116182;28;20406;-67
2022/04/25 07:16:52;;;;;;;0.70;0.60;;;;;;;;;;5116025;28;20432;-67
2022/04/25 07:19:21;;;;;;;0.70;0.60;;;;;;;;;;5114815;28;20448;-67
2022/04/25 07:30:10;;;;;;;0.70;0.60;;;;;;;;;;5114674;28;20453;-68
2022/04/25 07:32:40;;;;;;;0.70;0.60;;;;;;;;;;5098121;28;20442;-67
2022/04/25 07:35:09;;;;;;;0.70;0.60;;;;;;;;;;5098659;28;20436;-67
2022/04/25 07:37:35;;;;;;;0.70;0.60;;;;;;;;;;5114626;28;20461;-67
2022/04/25 07:40:06;;;;;;;0.70;0.60;;;;;;;;;;5099984;28;20461;-67
2022/04/25 07:42:34;;;;;;;0.70;0.70;;;;;;;;;;5094412;28;20515;-67
2022/04/25 07:45:01;;;;;;;0.70;0.60;;;;;;;;;;5103428;28;20421;-67
2022/04/25 07:47:27;;;;;;;0.70;0.60;;;;;;;;;;5114627;28;20433;-68
2022/04/25 07:50:00;;;;;;;0.70;0.60;;;;;;;;;;5113991;28;20430;-68
2022/04/25 07:52:30;;;;;;;0.70;0.60;;;;;;;;;;5114465;28;20555;-68
2022/04/25 07:54:58;;;;;;;1.20;1.10;;;;;;;;;;5115879;28;20762;-67
2022/04/25 07:57:29;;;;;;;0.70;0.60;;;;;;;;;;5097671;28;20802;-68
2022/04/25 07:59:57;;;;;;;0.70;0.60;;;;;;;;;;5113938;28;20429;-67
2022/04/25 08:02:34;;;;;;;0.70;0.60;;;;;;;;;;5115635;28;20512;-68
2022/04/25 08:05:03;;;;;;;0.63;0.50;;;;;;;;;;5113817;28;20920;-66
2022/04/25 08:07:36;;;;;;;0.70;0.50;;;;;;;;;;5097336;28;20818;-68
2022/04/25 08:10:04;;;;;;;0.70;0.60;;;;;;;;;;5115603;28;20433;-68
2022/04/25 08:18:06;;;;;;;0.70;0.60;;;;;;;;;;5115245;28;20456;-68
2022/04/25 08:20:36;;;;;;;0.70;0.70;;;;;;;;;;5114925;28;20432;-68
2022/04/25 08:23:04;;;;;;;0.70;0.60;;;;;;;;;;5115168;28;20418;-68
2022/04/25 08:25:30;;;;;;;0.70;0.70;;;;;;;;;;5097260;28;20469;-68
2022/04/25 08:27:59;;;;;;;0.70;0.70;;;;;;;;;;5115177;28;20474;-68
2022/04/25 08:30:26;;;;;;;0.70;0.70;;;;;;;;;;5113564;28;20436;-67
2022/04/25 08:32:55;;;;;;;0.70;0.60;;;;;;;;;;5113798;28;20430;-68
2022/04/25 08:35:22;;;;;;;0.70;0.60;;;;;;;;;;5096288;28;20441;-68
2022/04/25 08:37:50;;;;;;;0.70;0.60;;;;;;;;;;5114601;28;20968;-68
2022/04/25 08:40:18;;;;;;;0.80;0.70;;;;;;;;;;5093091;28;20439;-67
2022/04/25 08:42:45;;;;;;;0.70;0.60;;;;;;;;;;5093078;28;20965;-68
2022/04/25 08:45:21;;;;;;;0.70;0.67;;;;;;;;;;5097763;28;20465;-67
2022/04/25 08:47:52;;;;;;;0.70;0.60;;;;;;;;;;5094773;28;20778;-68
2022/04/25 08:50:19;;;;;;;0.70;0.60;;;;;;;;;;5094866;28;20903;-68
2022/04/25 08:52:46;;;;;;;0.70;0.60;;;;;;;;;;5092701;28;20463;-67
2022/04/25 08:55:16;;;;;;;0.70;0.70;;;;;;;;;;5094253;28;20431;-68
2022/04/25 08:57:44;;;;;;;0.70;0.60;;;;;;;;;;5112511;28;20947;-68
2022/04/25 09:00:17;;;;;;;0.70;0.70;;;;;;;;;;5114400;28;20429;-67
2022/04/25 09:02:50;;;;;;;0.80;0.70;;;;;;;;;;5114529;28;20417;-68
2022/04/25 09:05:17;;;;;;;0.70;0.60;;;;;;;;;;5114014;28;20525;-68
2022/04/25 09:07:44;;;;;;;0.70;0.60;;;;;;;;;;5112847;28;20821;-67
2022/04/25 09:10:14;;;;;;;0.70;0.60;;;;;;;;;;5126593;27;20528;-68
2022/04/25 09:12:46;;;;;;;0.70;0.60;;;;;;;;;;5114272;28;20898;-68
2022/04/25 09:15:17;;;;;;;0.70;0.60;;;;;;;;;;5113045;28;20499;-68
2022/04/25 09:17:55;;;;;;;0.70;0.60;;;;;;;;;;5112993;28;20471;-68
2022/04/25 09:20:23;;;;;;;0.70;0.60;;;;;;;;;;5113276;28;20429;-69
2022/04/25 09:22:49;;;;;;;0.70;0.60;;;;;;;;;;5114144;28;20953;-68
2022/04/25 09:25:17;;;;;;;1.10;1.00;;;;;;;;;;5113218;28;20474;-68
2022/04/25 09:28:11;;;;;;;0.70;0.60;;;;;;;;;;5113018;28;20617;-68
2022/04/25 09:30:38;;;;;;;0.70;0.60;;;;;;;;;;5113052;28;20436;-68
2022/04/25 09:33:20;;;;;;;0.70;0.60;;;;;;;;;;5112515;28;20435;-68
2022/04/25 09:35:52;;;;;;;0.87;0.87;;;;;;;;;;5112920;28;20458;-68
2022/04/25 09:38:28;;;;;;;0.80;0.70;;;;;;;;;;5112814;28;20978;-68
2022/04/25 09:40:56;;;;;;;0.83;0.77;;;;;;;;;;5093467;28;20441;-68
2022/04/25 09:43:29;;;;;;;0.70;0.60;;;;;;;;;;5093947;28;20443;-67
2022/04/25 09:46:00;;;;;;;0.83;0.83;;;;;;;;;;5096548;28;21075;-68
2022/04/25 09:48:27;;;;;;;0.70;0.60;;;;;;;;;;5097883;28;20411;-69
2022/04/25 09:51:00;;;;;;;0.80;0.80;;;;;;;;;;5096925;28;20488;-69
2022/04/25 09:53:41;;;;;;;0.70;0.60;;;;;;;;;;5097201;28;20910;-68
2022/04/25 09:56:12;;;;;;;0.80;0.70;;;;;;;;;;5116114;28;20469;-68
2022/04/25 09:58:44;;;;;;;0.70;0.70;;;;;;;;;;5117251;28;20515;-68
2022/04/25 10:01:13;;;;;;;0.73;0.67;;;;;;;;;;5117077;28;20463;-68
2022/04/25 10:03:41;;;;;;;0.80;0.77;;;;;;;;;;5115878;28;20636;-69
2022/04/25 10:06:09;;;;;;;0.80;0.70;;;;;;;;;;5116047;28;20464;-70
2022/04/25 10:08:36;;;;;;;0.80;0.80;;;;;;;;;;5116247;28;20436;-69
2022/04/25 10:11:04;;;;;;;0.80;0.80;;;;;;;;;;5117405;28;20429;-68
2022/04/25 10:13:31;;;;;;;0.80;0.63;;;;;;;;;;5117598;28;20457;-68
2022/04/25 10:16:00;;;;;;;0.80;0.73;;;;;;;;;;5117373;28;20431;-69
2022/04/25 10:18:32;;;;;;;1.33;0.80;;;;;;;;;;5117080;28;20429;-68
2022/04/25 10:21:00;;;;;;;1.30;1.20;;;;;;;;;;5116400;28;20448;-68
2022/04/25 10:23:27;;;;;;;0.70;0.70;;;;;;;;;;5117241;28;20475;-69
2022/04/25 10:25:55;;;;;;;0.80;0.70;;;;;;;;;;5116098;28;20539;-69
2022/04/25 10:28:25;;;;;;;0.90;0.90;;;;;;;;;;5116125;27;20457;-67
2022/04/25 10:30:51;;;;;;;0.80;0.77;;;;;;;;;;5116042;28;20515;-68
2022/04/25 10:33:21;;;;;;;0.70;0.70;;;;;;;;;;5116081;28;20909;-69
2022/04/25 10:35:50;;;;;;;0.80;0.70;;;;;;;;;;5115421;28;20455;-71
2022/04/25 10:38:48;;;;;;;0.80;0.80;;;;;;;;;;5115553;28;20510;-69
2022/04/25 10:44:26;;;;;;;0.70;0.70;;;;;;;;;;5114671;28;20444;-69
2022/04/25 10:47:09;;;;;;;0.80;0.80;;;;;;;;;;5090963;28;20498;-69
2022/04/25 10:49:40;;;;;;;0.70;0.60;;;;;;;;;;5116464;28;20930;-68
2022/04/25 10:52:22;;;;;;;0.80;0.77;;;;;;;;;;5116541;27;20463;-68
2022/04/25 10:54:49;;;;;;;0.70;0.60;;;;;;;;;;5109236;28;20484;-67
2022/04/25 10:57:18;;;;;;;0.80;0.80;;;;;;;;;;5115838;28;20421;-68
2022/04/25 10:59:45;;;;;;;0.80;0.80;;;;;;;;;;5111613;28;20506;-67
2022/04/25 11:02:21;;;;;;;0.80;0.70;;;;;;;;;;5116521;28;20443;-69
2022/04/25 11:05:10;;;;;;;0.80;0.70;;;;;;;;;;5115895;28;20488;-69
2022/04/25 11:07:38;;;;;;;1.00;0.90;;;;;;;;;;5115050;28;20461;-68
2022/04/25 11:10:06;;;;;;;0.70;0.70;;;;;;;;;;5116649;28;20537;-68
2022/04/25 11:12:54;;;;;;;0.73;0.70;;;;;;;;;;5115882;28;20409;-68
2022/04/25 11:15:36;;;;;;;0.70;0.63;;;;;;;;;;5111645;28;20796;-70
2022/04/25 11:18:20;;;;;;;3.80;1.33;;;;;;;;;;5116731;28;20428;-69
2022/04/25 11:20:58;;;;;;;1.17;1.07;;;;;;;;;;5114733;28;20473;-68
2022/04/25 11:23:28;;;;;;;0.80;0.70;;;;;;;;;;5114560;28;20434;-69
2022/04/25 11:25:56;;;;;;;0.70;0.60;;;;;;;;;;5099567;28;20448;-67
2022/04/25 11:28:23;;;;;;;0.90;0.90;;;;;;;;;;5115297;28;20537;-69
2022/04/25 11:31:17;;;;;;;0.80;0.73;;;;;;;;;;5117762;28;20427;-68
2022/04/25 11:33:44;;;;;;;1.00;0.90;;;;;;;;;;5056439;28;20454;-68
2022/04/25 11:36:13;;;;;;;0.80;0.70;;;;;;;;;;5116464;28;20888;-69
2022/04/25 11:41:27;;;;;;;0.70;0.60;;;;;;;;;;5114094;28;20447;-68
2022/04/25 11:43:55;;;;;;;0.80;0.80;;;;;;;;;;5115454;28;20425;-68
2022/04/25 11:46:21;;;;;;;0.70;0.70;;;;;;;;;;5115338;28;20426;-70
2022/04/25 11:48:49;;;;;;;1.00;0.90;;;;;;;;;;5113619;28;20486;-69
2022/04/25 11:51:23;;;;;;;0.80;0.80;;;;;;;;;;5113825;28;20456;-68
2022/04/25 11:53:51;;;;;;;0.80;0.70;;;;;;;;;;5114258;28;20817;-69
2022/04/25 11:56:18;;;;;;;0.80;0.80;;;;;;;;;;5113806;28;20481;-68
2022/04/25 11:58:45;;;;;;;0.80;0.70;;;;;;;;;;5115147;28;20443;-69
2022/04/25 12:01:12;;;;;;;0.80;0.67;;;;;;;;;;5096817;28;20525;-68
2022/04/25 12:03:39;;;;;;;0.70;0.70;;;;;;;;;;5112434;28;20444;-69
2022/04/25 12:06:09;;;;;;;0.80;0.80;;;;;;;;;;5113021;28;20467;-69
2022/04/25 12:17:00;;;;;;;0.70;0.60;;;;;;;;;;5115000;27;20450;-68
2022/04/25 12:19:27;;;;;;;3.00;0.90;;;;;;;;;;5113021;28;20472;-68
2022/04/25 12:22:00;;;;;;;0.70;0.60;;;;;;;;;;5113332;28;20884;-68
2022/04/25 12:24:33;;;;;;;0.77;0.70;;;;;;;;;;5105386;28;20797;-68
2022/04/25 12:27:10;;;;;;;0.70;0.70;;;;;;;;;;5114399;28;20455;-69
2022/04/25 12:29:37;;;;;;;0.80;0.80;;;;;;;;;;5092685;28;20427;-69
2022/04/25 12:32:07;;;;;;;0.80;0.80;;;;;;;;;;5092874;28;20538;-68
2022/04/25 12:34:34;;;;;;;0.80;0.80;;;;;;;;;;5093218;28;20899;-69
2022/04/25 12:37:03;;;;;;;0.80;0.70;;;;;;;;;;5093933;28;20522;-70
2022/04/25 12:39:31;;;;;;;0.80;0.70;;;;;;;;;;5092366;28;20472;-70
2022/04/25 12:42:00;;;;;;;0.70;0.70;;;;;;;;;;5094002;28;20797;-68
2022/04/25 12:44:28;;;;;;;0.80;0.70;;;;;;;;;;5092966;28;20456;-68
2022/04/25 12:47:00;;;;;;;0.70;0.70;;;;;;;;;;5076065;28;20438;-70
2022/04/25 12:49:32;;;;;;;0.80;0.80;;;;;;;;;;5092337;28;20541;-68
2022/04/25 12:52:00;;;;;;;0.70;0.60;;;;;;;;;;5092777;28;20944;-70
2022/04/25 12:54:28;;;;;;;0.80;0.80;;;;;;;;;;5091514;28;20437;-70
2022/04/25 12:57:09;;;;;;;0.70;0.60;;;;;;;;;;5093658;28;20474;-68
2022/04/25 12:59:36;;;;;;;0.70;0.60;;;;;;;;;;5091591;28;20458;-69
2022/04/25 13:02:07;;;;;;;1.00;0.90;;;;;;;;;;5092028;28;20429;-69
2022/04/25 13:04:48;;;;;;;0.80;0.80;;;;;;;;;;5092371;28;20423;-70
2022/04/25 13:07:14;;;;;;;0.80;0.80;;;;;;;;;;5092445;28;20680;-70
2022/04/25 13:09:41;;;;;;;1.17;1.10;;;;;;;;;;5092733;28;20512;-70
2022/04/25 13:12:14;;;;;;;0.80;0.80;;;;;;;;;;5092685;28;20446;-70
2022/04/25 13:14:43;;;;;;;0.80;0.80;;;;;;;;;;5092844;28;20450;-70
2022/04/25 13:17:09;;;;;;;3.03;0.80;;;;;;;;;;5092220;28;20482;-70
2022/04/25 13:19:37;;;;;;;0.70;0.70;;;;;;;;;;5092892;28;20996;-70
2022/04/25 13:22:04;;;;;;;0.70;0.60;;;;;;;;;;5091130;28;20493;-71
2022/04/25 13:24:37;;;;;;;0.70;0.70;;;;;;;;;;5092355;28;20437;-70
2022/04/25 13:27:06;;;;;;;0.70;0.70;;;;;;;;;;5092566;28;20413;-71
2022/04/25 13:29:36;;;;;;;0.70;0.70;;;;;;;;;;5093761;28;20425;-70
2022/04/25 13:32:04;;;;;;;0.70;0.60;;;;;;;;;;5093942;28;20424;-71
2022/04/25 13:34:34;;;;;;;0.70;0.67;;;;;;;;;;5092809;28;20429;-70
2022/04/25 13:37:02;;;;;;;0.70;0.67;;;;;;;;;;5098120;28;20525;-71
2022/04/25 13:39:30;;;;;;;0.90;0.90;;;;;;;;;;5114954;28;20463;-71
2022/04/25 13:42:01;;;;;;;0.80;0.80;;;;;;;;;;5095196;28;20441;-68
2022/04/25 13:44:27;;;;;;;0.80;0.73;;;;;;;;;;5113004;28;20815;-71
2022/04/25 13:46:59;;;;;;;0.70;0.70;;;;;;;;;;5114428;28;20472;-71
2022/04/25 13:49:26;;;;;;;1.17;1.00;;;;;;;;;;5096451;28;20513;-73
2022/04/25 13:51:54;;;;;;;0.80;0.70;;;;;;;;;;5111400;28;20468;-73
2022/04/25 13:54:26;;;;;;;0.73;0.63;;;;;;;;;;5092271;28;20448;-69
2022/04/25 13:56:53;;;;;;;0.70;0.60;;;;;;;;;;5092339;28;20851;-69
2022/04/25 13:59:23;;;;;;;0.70;0.60;;;;;;;;;;5093512;28;20484;-69
2022/04/25 14:01:53;;;;;;;0.70;0.60;;;;;;;;;;5092419;28;20450;-69
2022/04/25 14:04:23;;;;;;;0.70;0.60;;;;;;;;;;5092261;28;20434;-68
2022/04/25 14:06:50;;;;;;;0.80;0.80;;;;;;;;;;5073367;28;20501;-70
2022/04/25 14:09:18;;;;;;;0.70;0.70;;;;;;;;;;5072983;28;20454;-69
2022/04/25 14:11:46;;;;;;;0.70;0.60;;;;;;;;;;5071289;28;20439;-69
2022/04/25 14:14:13;;;;;;;0.70;0.60;;;;;;;;;;5089265;28;20546;-68
2022/04/25 14:16:41;;;;;;;0.80;0.70;;;;;;;;;;5072802;28;20623;-68
2022/04/25 14:19:09;;;;;;;0.70;0.60;;;;;;;;;;5078103;28;20469;-69
2022/04/25 14:21:49;;;;;;;0.70;0.60;;;;;;;;;;5094828;28;21047;-70
2022/04/25 14:24:16;;;;;;;0.70;0.60;;;;;;;;;;5087764;28;20490;-69
2022/04/25 14:26:44;;;;;;;0.70;0.60;;;;;;;;;;5087230;28;20809;-68
2022/04/25 14:29:10;;;;;;;0.70;0.70;;;;;;;;;;5092061;28;20972;-69
2022/04/25 14:31:38;;;;;;;0.70;0.60;;;;;;;;;;5110204;28;20437;-70
2022/04/25 14:34:12;;;;;;;0.70;0.70;;;;;;;;;;5090445;28;20926;-69
2022/04/25 14:36:40;;;;;;;0.70;0.60;;;;;;;;;;5083404;28;20459;-69
2022/04/25 14:39:08;;;;;;;0.70;0.60;;;;;;;;;;5097083;28;20772;-68
2022/04/25 14:41:36;;;;;;;0.70;0.60;;;;;;;;;;5093853;28;20885;-70
2022/04/25 14:44:03;;;;;;;0.70;0.60;;;;;;;;;;5102830;28;20848;-70
2022/04/25 14:46:33;;;;;;;0.70;0.60;;;;;;;;;;5082799;28;20970;-69
2022/04/25 14:48:59;;;;;;;0.70;0.60;;;;;;;;;;5077981;28;20501;-70
2022/04/25 14:54:24;;;;;;;0.80;0.70;;;;;;;;;;5094446;28;20451;-70
2022/04/25 14:56:53;;;;;;;0.70;0.60;;;;;;;;;;5066512;28;20511;-70
2022/04/25 14:59:22;;;;;;;0.70;0.60;;;;;;;;;;5095573;28;20455;-69
2022/04/25 15:01:51;;;;;;;0.70;0.60;;;;;;;;;;5096689;28;20460;-70
2022/04/25 15:04:20;;;;;;;0.80;0.80;;;;;;;;;;5095660;28;20455;-71
2022/04/25 15:06:51;;;;;;;1.73;1.00;;;;;;;;;;5088083;28;20469;-69
2022/04/25 15:09:19;;;;;;;0.80;0.70;;;;;;;;;;5078324;28;20476;-70
2022/04/25 15:11:47;;;;;;;0.73;0.70;;;;;;;;;;5094813;28;20446;-70
2022/04/25 15:14:14;;;;;;;0.70;0.70;;;;;;;;;;5074532;28;20427;-69
2022/04/25 15:16:42;;;;;;;0.90;0.87;;;;;;;;;;5078635;28;20476;-70
2022/04/25 15:19:13;;;;;;;0.70;0.70;;;;;;;;;;5092295;28;20476;-72
2022/04/25 15:21:40;;;;;;;0.70;0.60;;;;;;;;;;5077498;28;20481;-71
2022/04/25 15:24:07;;;;;;;0.70;0.70;;;;;;;;;;5093668;28;20431;-70
2022/04/25 15:26:37;;;;;;;0.70;0.60;;;;;;;;;;5094154;28;20802;-70
2022/04/25 15:29:04;;;;;;;0.80;0.77;;;;;;;;;;5094484;28;20463;-70
2022/04/25 15:31:30;;;;;;;1.00;0.80;;;;;;;;;;5077139;28;20397;-71
2022/04/25 15:34:00;;;;;;;0.83;0.77;;;;;;;;;;5095688;28;20422;-72
2022/04/25 15:36:27;;;;;;;0.90;0.90;;;;;;;;;;5093554;28;20823;-70
2022/04/25 15:38:54;;;;;;;1.70;1.60;;;;;;;;;;5095099;28;20492;-71
2022/04/25 15:41:21;;;;;;;0.87;0.80;;;;;;;;;;5093369;28;20813;-70
2022/04/25 15:43:49;;;;;;;1.20;1.10;;;;;;;;;;5093514;28;20405;-70
2022/04/25 15:46:17;;;;;;;0.80;0.80;;;;;;;;;;5090021;28;20438;-71
2022/04/25 15:48:46;;;;;;;0.70;0.60;;;;;;;;;;5086209;28;20425;-72
2022/04/25 15:51:12;;;;;;;0.70;0.70;;;;;;;;;;5086384;28;20439;-70
2022/04/25 15:59:13;;;;;;;1.27;1.17;;;;;;;;;;5077955;28;20447;-70
2022/04/25 16:01:41;;;;;;;0.70;0.70;;;;;;;;;;5095409;28;20456;-70
2022/04/25 16:04:09;;;;;;;0.70;0.67;;;;;;;;;;5095701;28;20426;-70